• Join FlightAware (Why Join?)
  • Login
  • US Flag 
11:58PM EST


 

Airport Tracker/Info


-or-


 

Live Flight TrackerFlight Track Log ✈ AWE611A ✈ 24-Jul-2013 ✈ KPHX - KLAS

Flight Track Log - Related Links

Times and Time Zones

All times are in EDT time to prevent confusion due to time zone crossing. See the AWE611A flight status page for this flight to view local times or setup timezone preferences in your user account.

Time Position Orientation Groundspeed Altitude Reporting Facility
EDT Latitude Longitude Course Direction KTS MPH feet Rate Location/Type
11:50PM 33.8728 -112.1781 360° North 363 418 14,300  Level Los Angeles Center
11:51PM 33.9769 -112.1775 360° North 372 428 15,900 1,854 Climbing Los Angeles Center
11:52PM 34.0853 -112.1781 360° North 383 441 18,100 1,645 Climbing Los Angeles Center
11:53PM 34.1950 -112.1753 North 392 451 19,300 1,417 Climbing Los Angeles Center
11:54PM 34.3286 -112.1717 North 411 473 21,100 1,714 Climbing Albuquerque Center
11:55PM 34.4431 -112.1692 North 410 472 22,900 1,463 Climbing Albuquerque Center
11:56PM 34.5572 -112.1653 North 408 470 24,100 1,073 Climbing Albuquerque Center
11:57PM 34.6750 -112.1653 360° North 415 478 25,100 934 Climbing Albuquerque Center
11:58PM 34.7547 -112.2683 313° West 421 484 26,000 439 Climbing Albuquerque Center
11:59PM 34.7950 -112.4042 290° West 425 489 26,000  Level Albuquerque Center
12:00AM 34.8622 -112.5597 298° West 432 497 26,000  Level Albuquerque Center
12:01AM 34.9389 -112.6769 309° West 439 505 26,000  Level Albuquerque Center
12:02AM 34.9828 -112.8139 291° West 436 502 26,000  Level Albuquerque Center
12:03AM 35.0189 -112.9558 287° West 437 503 26,000  Level Albuquerque Center
12:04AM 35.0644 -113.0911 292° West 431 496 26,000  Level Albuquerque Center
12:05AM 35.1153 -113.2194 296° West 422 486 26,000 -244 Level Albuquerque Center
12:06AM 35.1653 -113.3492 295° West 421 484 25,500 -738 Descending Albuquerque Center
12:07AM 35.2133 -113.4783 295° West 419 482 24,500 -976 Descending Albuquerque Center
12:08AM 35.2619 -113.6050 295° West 415 478 23,500 -976 Descending Albuquerque Center
12:09AM 35.3086 -113.7294 295° West 408 470 22,500 -966 Descending Albuquerque Center
12:11AM 35.3739 -113.9025 295° West 402 463 21,100 -1,480 Descending Los Angeles Center
12:12AM 35.4333 -114.0589 295° West 399 459 18,800 -2,081 Descending Los Angeles Center
12:13AM 35.4944 -114.1522 309° West 387 445 16,800 -2,018 Descending Los Angeles Center
12:13AM 35.5708 -114.2275 321° Northwest 391 450 15,100 -1,902 Descending Los Angeles Center
12:15AM 35.6661 -114.3114 324° Northwest 367 422 12,900 -1,314 Descending Los Angeles Center
12:16AM 35.7411 -114.3814 323° Northwest 350 403 12,100 -732 Descending Los Angeles Center
12:17AM 35.8183 -114.4194 338° Northwest 311 358 11,400 -537 Descending Los Angeles Center
12:18AM 35.8953 -114.4550 339° North 300 345 11,000 -677 Descending Los Angeles Center
12:19AM 35.9739 -114.4939 338° Northwest 265 305 10,000 -1,073 Descending Los Angeles Center
12:20AM 36.0050 -114.5672 298° West 248 285 8,800 -984 Descending Los Angeles Center
12:21AM 36.0367 -114.6436 297° West 240 276 8,000 -344 Descending Los Angeles Center
12:22AM 36.0694 -114.7233 297° West 242 278 8,100 -290 Climbing Los Angeles Center
12:23AM 36.0742 -114.7961 275° West 239 275 7,400 -672 Descending Los Angeles Center
12:24AM 36.0731 -114.8708 269° West 229 264 6,700 -1,122 Descending Los Angeles Center
12:25AM 36.0736 -114.9344 271° West 208 239 5,100 -1,317 Descending Los Angeles Center
12:26AM 36.0731 -114.9975 269° West 194 223 4,000 -1,016 Descending Los Angeles Center
12:27AM 36.0731 -115.0653 270° West 151 174 3,000 -829 Descending Los Angeles Center
12:28AM 36.0728 -115.1139 270° West 158 182 2,300 -689 Descending Los Angeles Center
12:30AM 36.0667 -115.1500 270° West  Level FlightAware Approximate